createdAt,value
2022-10-15T00:01:49.742Z,13.67
2022-10-15T00:04:18.749Z,13.94
2022-10-15T00:06:47.401Z,13.50
2022-10-15T00:09:16.019Z,13.95
2022-10-15T00:11:44.484Z,13.69
2022-10-15T00:14:12.986Z,13.80
2022-10-15T00:16:42.873Z,13.48
2022-10-15T00:19:11.726Z,13.99
2022-10-15T00:21:40.933Z,13.87
2022-10-15T00:24:09.782Z,13.66
2022-10-15T00:26:38.309Z,13.95
2022-10-15T00:29:06.868Z,14.11
2022-10-15T00:31:35.658Z,13.70
2022-10-15T00:34:05.618Z,13.39
2022-10-15T00:36:36.875Z,13.52
2022-10-15T00:39:07.392Z,13.53
2022-10-15T00:41:38.237Z,13.70
2022-10-15T00:44:40.102Z,13.63
2022-10-15T00:47:15.857Z,13.59
2022-10-15T00:49:50.271Z,13.76
2022-10-15T00:52:22.652Z,14.15
2022-10-15T00:54:56.890Z,13.82
2022-10-15T00:57:26.390Z,13.96
2022-10-15T01:00:00.026Z,13.98
2022-10-15T01:02:28.460Z,13.61
2022-10-15T01:04:58.356Z,13.63
2022-10-15T01:07:26.925Z,13.42
2022-10-15T01:09:55.504Z,13.39
2022-10-15T01:12:35.169Z,13.62
2022-10-15T01:15:11.124Z,13.85
2022-10-15T01:17:47.190Z,13.83
2022-10-15T01:20:48.998Z,14.00
2022-10-15T01:23:55.001Z,13.80
2022-10-15T01:27:09.912Z,14.14
2022-10-15T01:30:20.085Z,14.43
2022-10-15T01:33:05.414Z,14.16
2022-10-15T01:35:46.270Z,14.06
2022-10-15T01:38:27.993Z,13.93
2022-10-15T01:40:59.910Z,14.22
2022-10-15T01:43:37.018Z,14.32
2022-10-15T01:46:36.147Z,14.44
2022-10-15T01:49:10.029Z,14.53
2022-10-15T01:51:41.543Z,14.87
2022-10-15T01:54:15.638Z,14.62
2022-10-15T01:56:49.807Z,14.87
2022-10-15T01:59:25.238Z,14.12
2022-10-15T02:02:01.144Z,14.36
2022-10-15T02:04:56.982Z,14.19
2022-10-15T02:07:36.132Z,14.51
2022-10-15T02:10:15.057Z,14.26
2022-10-15T02:12:52.762Z,14.73
2022-10-15T02:15:29.584Z,14.93
2022-10-15T02:18:06.563Z,14.93
2022-10-15T02:20:44.648Z,13.89
2022-10-15T02:23:20.359Z,13.89
2022-10-15T02:25:52.390Z,14.62
2022-10-15T02:28:23.236Z,14.71
2022-10-15T02:31:20.241Z,15.13
2022-10-15T02:33:51.806Z,15.05
2022-10-15T02:36:22.333Z,14.30
2022-10-15T02:38:53.535Z,14.39
2022-10-15T02:41:22.760Z,14.30
2022-10-15T02:43:51.947Z,14.26
2022-10-15T02:46:21.370Z,14.35
2022-10-15T02:48:50.270Z,14.61
2022-10-15T02:51:21.434Z,14.68
2022-10-15T02:53:50.109Z,14.57
2022-10-15T02:56:20.643Z,14.68
2022-10-15T02:58:49.715Z,14.67
2022-10-15T03:01:20.416Z,15.03
2022-10-15T03:03:50.035Z,15.20
2022-10-15T03:06:19.328Z,15.02
2022-10-15T03:08:51.232Z,14.86
2022-10-15T03:11:19.643Z,14.78
2022-10-15T03:13:48.399Z,14.66
2022-10-15T03:16:16.883Z,14.52
2022-10-15T03:18:47.807Z,14.39
2022-10-15T03:21:17.854Z,14.45
2022-10-15T03:23:46.757Z,13.92
2022-10-15T03:26:21.890Z,13.99
2022-10-15T03:28:51.934Z,13.83
2022-10-15T03:31:34.002Z,13.67
2022-10-15T03:34:05.220Z,13.98
2022-10-15T03:36:34.288Z,13.36
2022-10-15T03:39:06.335Z,13.63
2022-10-15T03:41:36.960Z,13.57
2022-10-15T03:44:09.122Z,13.55
2022-10-15T03:46:42.340Z,13.82
2022-10-15T03:49:11.945Z,13.87
2022-10-15T03:51:41.250Z,14.02
2022-10-15T03:54:13.425Z,14.40
2022-10-15T03:56:51.059Z,14.12
2022-10-15T03:59:26.733Z,14.34
2022-10-15T04:02:01.146Z,14.31
2022-10-15T04:04:30.545Z,14.87
2022-10-15T04:06:59.475Z,14.76
2022-10-15T04:09:28.261Z,14.01
2022-10-15T04:12:19.018Z,14.46
2022-10-15T04:14:48.225Z,14.54
2022-10-15T04:17:17.843Z,14.33
2022-10-15T04:19:47.799Z,13.81
2022-10-15T04:22:17.855Z,13.90
2022-10-15T04:24:51.323Z,14.01
2022-10-15T04:27:29.982Z,14.14
2022-10-15T04:30:12.899Z,14.08
2022-10-15T04:32:46.734Z,13.72
2022-10-15T04:35:16.400Z,14.00
2022-10-15T04:37:54.427Z,14.19
2022-10-15T04:40:22.960Z,14.30
2022-10-15T04:42:53.531Z,14.09
2022-10-15T04:47:58.294Z,13.30
2022-10-15T04:50:27.552Z,13.67
2022-10-15T04:53:32.085Z,13.65
2022-10-15T04:56:02.409Z,13.60
2022-10-15T04:58:33.614Z,13.82
2022-10-15T05:01:03.365Z,13.88
2022-10-15T05:03:38.621Z,13.36
2022-10-15T05:06:11.912Z,14.15
2022-10-15T05:08:43.481Z,14.81
2022-10-15T05:11:23.175Z,14.16
2022-10-15T05:13:56.478Z,13.95
2022-10-15T05:16:28.475Z,13.79
2022-10-15T05:19:00.576Z,14.06
2022-10-15T05:21:32.804Z,14.19
2022-10-15T05:24:06.096Z,14.42
2022-10-15T05:26:55.400Z,14.24
2022-10-15T05:29:26.847Z,14.56
2022-10-15T05:31:55.973Z,14.50
2022-10-15T05:34:30.528Z,14.39
2022-10-15T05:37:06.626Z,13.78
2022-10-15T05:39:35.258Z,14.08
2022-10-15T05:42:03.656Z,13.92
2022-10-15T05:44:48.449Z,14.49
2022-10-15T05:47:17.315Z,14.33
2022-10-15T05:49:49.554Z,14.39
2022-10-15T05:52:26.276Z,14.59
2022-10-15T05:55:14.346Z,15.18
2022-10-15T05:57:43.144Z,15.24
2022-10-15T06:00:15.116Z,15.31
2022-10-15T06:02:43.756Z,15.33
2022-10-15T06:05:13.167Z,15.19
2022-10-15T06:07:42.008Z,14.91
2022-10-15T06:10:11.313Z,15.13
2022-10-15T06:12:39.766Z,14.74
2022-10-15T06:15:09.343Z,14.26
2022-10-15T06:17:40.283Z,14.58
2022-10-15T06:20:09.532Z,15.15
2022-10-15T06:22:38.771Z,15.05
2022-10-15T06:25:09.385Z,15.26
2022-10-15T06:27:38.037Z,14.80
2022-10-15T06:30:07.839Z,14.92
2022-10-15T06:32:36.593Z,15.03
2022-10-15T06:35:07.567Z,14.82
2022-10-15T06:37:36.428Z,14.70
2022-10-15T06:40:05.551Z,14.24
2022-10-15T06:42:35.410Z,14.85
2022-10-15T06:45:04.316Z,14.33
2022-10-15T06:47:33.404Z,13.78
2022-10-15T06:50:02.378Z,13.80
2022-10-15T06:52:33.480Z,14.10
2022-10-15T06:55:02.012Z,14.11
2022-10-15T06:57:30.853Z,13.95
2022-10-15T06:59:59.704Z,14.13
2022-10-15T07:02:28.009Z,14.92
2022-10-15T07:04:57.706Z,14.92
2022-10-15T07:07:26.707Z,15.33
2022-10-15T07:09:56.875Z,15.22
2022-10-15T07:12:25.668Z,15.64
2022-10-15T07:14:54.394Z,15.47
2022-10-15T07:17:26.381Z,14.28
2022-10-15T07:19:57.307Z,14.76
2022-10-15T07:22:43.807Z,14.66
2022-10-15T07:25:20.328Z,15.02
2022-10-15T07:27:51.247Z,14.49
2022-10-15T07:30:20.633Z,14.41
2022-10-15T07:32:50.730Z,14.65
2022-10-15T07:35:22.247Z,14.67
2022-10-15T07:38:02.640Z,14.60
2022-10-15T07:40:39.818Z,14.41
2022-10-15T07:43:11.490Z,14.59
2022-10-15T07:45:41.981Z,14.61
2022-10-15T07:48:10.568Z,14.40
2022-10-15T07:50:42.305Z,14.74
2022-10-15T07:53:18.043Z,14.79
2022-10-15T07:55:54.872Z,14.82
2022-10-15T07:58:23.888Z,14.75
2022-10-15T08:00:57.790Z,15.24
2022-10-15T08:03:35.527Z,15.08
2022-10-15T08:06:23.240Z,14.42
2022-10-15T08:08:54.587Z,15.11
2022-10-15T08:11:58.158Z,14.68
2022-10-15T08:14:29.648Z,15.01
2022-10-15T08:17:00.685Z,14.41
2022-10-15T08:19:33.701Z,14.53
2022-10-15T08:28:05.690Z,15.45
2022-10-15T08:30:46.504Z,15.63
2022-10-15T08:33:47.185Z,15.63
2022-10-15T08:36:16.596Z,15.31
2022-10-15T08:39:13.469Z,15.89
2022-10-15T08:41:50.499Z,15.07
2022-10-15T08:44:59.196Z,15.39
2022-10-15T08:47:39.993Z,15.31
2022-10-15T08:50:45.297Z,14.66
2022-10-15T08:53:30.318Z,15.56
2022-10-15T08:56:48.373Z,16.02
2022-10-15T08:59:29.846Z,16.58
2022-10-15T09:02:16.364Z,16.18
2022-10-15T09:05:00.302Z,16.25
2022-10-15T09:10:59.117Z,15.91
2022-10-15T09:13:44.284Z,15.98
2022-10-15T09:16:16.988Z,16.13
2022-10-15T09:19:02.364Z,16.64
2022-10-15T09:21:33.206Z,16.11
2022-10-15T09:24:07.375Z,16.14
2022-10-15T09:26:56.167Z,16.24
2022-10-15T09:29:39.511Z,15.97
2022-10-15T09:32:42.138Z,15.30
2022-10-15T09:38:38.186Z,15.36
2022-10-15T09:41:18.390Z,16.12
2022-10-15T09:43:51.398Z,16.64
2022-10-15T09:46:25.306Z,16.63
2022-10-15T09:49:04.719Z,16.39
2022-10-15T09:51:39.439Z,17.08
2022-10-15T09:54:19.030Z,17.08
2022-10-15T09:57:00.211Z,16.58
2022-10-15T09:59:34.170Z,16.97
2022-10-15T10:02:21.234Z,16.58
2022-10-15T10:04:59.550Z,16.30
2022-10-15T10:07:35.214Z,16.76
2022-10-15T10:10:31.479Z,17.34
2022-10-15T10:13:00.301Z,17.02
2022-10-15T10:15:35.447Z,17.63
2022-10-15T10:18:08.068Z,17.12
2022-10-15T10:20:54.910Z,16.67
2022-10-15T10:23:33.745Z,16.47
2022-10-15T10:26:03.787Z,16.38
2022-10-15T10:28:39.332Z,16.46
2022-10-15T10:31:12.789Z,16.72
2022-10-15T10:33:47.862Z,16.22
2022-10-15T10:36:30.836Z,16.76
2022-10-15T10:39:40.405Z,16.87
2022-10-15T10:42:24.470Z,16.45
2022-10-15T10:45:01.281Z,16.94
2022-10-15T10:47:40.735Z,16.67
2022-10-15T10:50:29.282Z,16.34
2022-10-15T10:53:00.729Z,16.42
2022-10-15T10:55:43.334Z,17.17
2022-10-15T10:58:22.155Z,16.63
2022-10-15T11:00:55.692Z,16.72
2022-10-15T11:03:32.863Z,16.37
2022-10-15T11:06:17.711Z,16.78
2022-10-15T11:08:56.984Z,17.21
2022-10-15T11:11:39.442Z,17.16
2022-10-15T11:14:20.031Z,17.28
2022-10-15T11:17:02.152Z,16.71
2022-10-15T11:22:49.824Z,16.99
2022-10-15T11:25:30.712Z,17.67
2022-10-15T11:28:14.889Z,17.65
2022-10-15T11:30:52.112Z,17.20
2022-10-15T11:33:41.591Z,17.38
2022-10-15T11:36:33.521Z,17.32
2022-10-15T11:39:19.348Z,17.06
2022-10-15T11:41:55.692Z,17.32
2022-10-15T11:44:37.193Z,17.64
2022-10-15T11:47:32.677Z,17.53
2022-10-15T11:50:15.084Z,17.28
2022-10-15T11:53:11.081Z,17.25
2022-10-15T11:55:43.517Z,17.28
2022-10-15T11:58:18.177Z,17.70
2022-10-15T12:00:53.217Z,17.74
2022-10-15T12:03:26.183Z,17.60
2022-10-15T12:05:58.671Z,17.01
2022-10-15T12:08:32.447Z,17.09
2022-10-15T12:11:15.681Z,16.96
2022-10-15T12:13:52.046Z,17.03
2022-10-15T12:16:30.252Z,16.97
2022-10-15T12:19:09.018Z,17.25
2022-10-15T12:21:40.845Z,16.98
2022-10-15T12:24:50.396Z,16.91
2022-10-15T12:27:37.069Z,16.87
2022-10-15T12:30:24.035Z,17.13
2022-10-15T12:32:55.647Z,17.32
2022-10-15T12:35:37.088Z,17.27
2022-10-15T12:38:20.391Z,17.33
2022-10-15T12:40:57.720Z,17.26
2022-10-15T12:43:28.183Z,17.15
2022-10-15T12:45:59.318Z,17.44
2022-10-15T12:48:48.127Z,16.54
2022-10-15T12:51:41.553Z,17.25
2022-10-15T12:54:36.983Z,16.95
2022-10-15T12:57:58.908Z,17.28
2022-10-15T13:00:39.584Z,17.75
2022-10-15T13:03:33.006Z,17.19
2022-10-15T13:06:35.620Z,17.17
2022-10-15T13:09:26.198Z,17.60
2022-10-15T13:11:57.156Z,17.73
2022-10-15T13:14:31.585Z,17.19
2022-10-15T13:17:04.124Z,17.47
2022-10-15T13:19:38.336Z,17.62
2022-10-15T13:22:20.980Z,18.28
2022-10-15T13:24:51.217Z,18.65
2022-10-15T13:27:24.725Z,18.51
2022-10-15T13:29:58.991Z,18.24
2022-10-15T13:32:30.582Z,18.24
2022-10-15T13:35:00.654Z,17.98
2022-10-15T13:37:33.484Z,18.15
2022-10-15T13:40:07.916Z,18.51
2022-10-15T13:42:37.453Z,17.99
2022-10-15T13:45:17.726Z,18.46
2022-10-15T13:47:50.282Z,18.57
2022-10-15T13:50:21.941Z,18.11
2022-10-15T13:52:54.027Z,17.96
2022-10-15T13:55:26.722Z,18.15
2022-10-15T13:58:01.295Z,18.01
2022-10-15T14:00:33.009Z,18.27
2022-10-15T14:03:08.936Z,18.08
2022-10-15T14:05:37.922Z,17.73
2022-10-15T14:08:07.099Z,17.44
2022-10-15T14:10:38.093Z,17.36
2022-10-15T14:13:06.678Z,18.22
2022-10-15T14:15:48.922Z,18.47
2022-10-15T14:18:27.827Z,18.19
2022-10-15T14:20:56.841Z,18.15
2022-10-15T14:23:26.987Z,18.46
2022-10-15T14:26:01.048Z,18.31
2022-10-15T14:28:32.465Z,18.12
2022-10-15T14:31:31.274Z,17.80
2022-10-15T14:34:00.177Z,18.18
2022-10-15T14:36:32.205Z,17.73
2022-10-15T14:39:26.284Z,17.25
2022-10-15T14:42:02.338Z,17.40
2022-10-15T14:44:47.042Z,17.57
2022-10-15T14:47:24.251Z,17.50
2022-10-15T14:49:56.567Z,17.61
2022-10-15T14:52:25.597Z,17.33
2022-10-15T14:55:03.076Z,17.94
2022-10-15T14:57:38.099Z,17.86
2022-10-15T15:00:16.163Z,18.18
2022-10-15T15:02:44.995Z,18.10
2022-10-15T15:05:22.912Z,17.96
2022-10-15T15:07:52.111Z,17.90
2022-10-15T15:10:21.396Z,17.84
2022-10-15T15:12:54.862Z,18.67
2022-10-15T15:15:26.084Z,17.91
2022-10-15T15:17:55.068Z,18.09
2022-10-15T15:20:26.214Z,18.32
2022-10-15T15:22:55.958Z,18.15
2022-10-15T15:25:29.764Z,17.92
2022-10-15T15:28:00.350Z,17.64
2022-10-15T15:30:31.411Z,17.66
2022-10-15T15:33:01.158Z,17.51
2022-10-15T15:35:37.217Z,17.30
2022-10-15T15:38:08.194Z,17.17
2022-10-15T15:40:37.538Z,17.21
2022-10-15T15:43:07.668Z,16.89
2022-10-15T15:45:36.407Z,16.76
2022-10-15T15:48:05.452Z,17.00
2022-10-15T15:50:35.375Z,17.22
2022-10-15T15:53:04.739Z,17.31
2022-10-15T15:55:33.197Z,17.09
2022-10-15T15:58:01.998Z,17.15
2022-10-15T16:00:31.683Z,17.33
2022-10-15T16:03:00.547Z,17.02
2022-10-15T16:05:29.123Z,17.22
2022-10-15T16:07:58.582Z,16.69
2022-10-15T16:10:27.794Z,16.62
2022-10-15T16:12:56.819Z,16.55
2022-10-15T16:15:25.977Z,16.57
2022-10-15T16:17:56.549Z,16.51
2022-10-15T16:20:25.462Z,16.51
2022-10-15T16:22:54.606Z,16.65
2022-10-15T16:25:26.408Z,16.67
2022-10-15T16:28:01.855Z,16.23
2022-10-15T16:30:30.516Z,16.63
2022-10-15T16:33:00.986Z,16.78
2022-10-15T16:35:29.907Z,17.01
2022-10-15T16:37:58.297Z,16.89
2022-10-15T16:40:26.903Z,16.83
2022-10-15T16:42:55.644Z,16.96
2022-10-15T16:45:25.042Z,16.91
2022-10-15T16:47:56.159Z,16.49
2022-10-15T16:50:25.965Z,17.13
2022-10-15T16:52:54.325Z,17.35
2022-10-15T16:55:22.369Z,17.34
2022-10-15T16:57:51.059Z,16.91
2022-10-15T17:00:19.573Z,16.91
2022-10-15T17:02:47.836Z,16.99
2022-10-15T17:05:15.881Z,16.87
2022-10-15T17:07:45.368Z,16.92
2022-10-15T17:10:14.817Z,16.96
2022-10-15T17:12:43.508Z,16.95
2022-10-15T17:15:12.360Z,17.02
2022-10-15T17:17:40.683Z,16.98
2022-10-15T17:20:10.310Z,16.81
2022-10-15T17:22:38.329Z,16.70
2022-10-15T17:25:08.426Z,16.63
2022-10-15T17:27:36.683Z,16.23
2022-10-15T17:30:05.530Z,16.26
2022-10-15T17:32:33.865Z,16.21
2022-10-15T17:35:03.940Z,16.10
2022-10-15T17:37:32.959Z,15.90
2022-10-15T17:40:01.164Z,15.93
2022-10-15T17:42:30.954Z,15.83
2022-10-15T17:44:59.210Z,15.71
2022-10-15T17:47:27.803Z,15.74
2022-10-15T17:49:56.267Z,15.90
2022-10-15T17:52:24.380Z,16.01
2022-10-15T17:54:52.984Z,15.98
2022-10-15T17:57:20.977Z,15.85
2022-10-15T17:59:51.238Z,15.82
2022-10-15T18:02:19.769Z,15.86
2022-10-15T18:04:49.560Z,15.96
2022-10-15T18:07:19.913Z,15.69
2022-10-15T18:09:47.878Z,16.04
2022-10-15T18:12:16.142Z,16.00
2022-10-15T18:14:45.033Z,15.92
2022-10-15T18:17:15.658Z,16.16
2022-10-15T18:19:44.206Z,16.19
2022-10-15T18:22:12.910Z,16.41
2022-10-15T18:24:41.139Z,16.46
2022-10-15T18:27:09.336Z,16.33
2022-10-15T18:29:37.974Z,16.31
2022-10-15T18:32:07.594Z,16.20
2022-10-15T18:34:37.571Z,16.05
2022-10-15T18:37:06.026Z,16.18
2022-10-15T18:39:34.364Z,16.01
2022-10-15T18:42:03.023Z,16.12
2022-10-15T18:44:33.387Z,16.11
2022-10-15T18:47:01.813Z,15.94
2022-10-15T18:49:30.759Z,16.01
2022-10-15T18:52:06.485Z,15.91
2022-10-15T18:54:44.414Z,15.89
2022-10-15T18:57:12.611Z,15.84
2022-10-15T18:59:41.004Z,15.69
2022-10-15T19:02:10.607Z,15.72
2022-10-15T19:04:38.700Z,15.60
2022-10-15T19:07:08.480Z,15.70
2022-10-15T19:09:36.825Z,15.86
2022-10-15T19:12:05.809Z,15.82
2022-10-15T19:14:34.066Z,15.79
2022-10-15T19:17:03.289Z,15.72
2022-10-15T19:19:31.587Z,15.72
2022-10-15T19:22:00.690Z,15.98
2022-10-15T19:24:30.368Z,16.02
2022-10-15T19:26:58.667Z,16.05
2022-10-15T19:29:30.292Z,16.00
2022-10-15T19:32:04.008Z,15.89
2022-10-15T19:34:34.543Z,15.75
2022-10-15T19:37:04.297Z,15.83
2022-10-15T19:39:39.674Z,15.91
2022-10-15T19:42:08.010Z,15.80
2022-10-15T19:44:36.452Z,15.68
2022-10-15T19:47:04.561Z,15.95
2022-10-15T19:49:34.030Z,15.99
2022-10-15T19:52:03.272Z,16.22
2022-10-15T19:54:32.598Z,15.69
2022-10-15T19:57:02.862Z,16.23
2022-10-15T19:59:31.554Z,16.24
2022-10-15T20:02:00.089Z,15.88
2022-10-15T20:04:28.841Z,15.79
2022-10-15T20:06:57.537Z,16.02
2022-10-15T20:09:26.101Z,15.66
2022-10-15T20:11:54.604Z,15.72
2022-10-15T20:14:24.327Z,16.08
2022-10-15T20:16:53.190Z,16.35
2022-10-15T20:19:22.082Z,16.49
2022-10-15T20:21:51.181Z,16.46
2022-10-15T20:24:19.747Z,16.28
2022-10-15T20:26:48.147Z,16.41
2022-10-15T20:29:17.499Z,16.39
2022-10-15T20:31:47.344Z,16.57
2022-10-15T20:34:16.157Z,16.58
2022-10-15T20:36:45.505Z,16.43
2022-10-15T20:39:13.977Z,16.20
2022-10-15T20:41:42.222Z,16.16
2022-10-15T20:44:12.196Z,16.11
2022-10-15T20:46:45.071Z,16.21
2022-10-15T20:49:18.723Z,16.19
2022-10-15T20:51:46.956Z,16.28
2022-10-15T20:54:16.674Z,16.09
2022-10-15T20:56:45.100Z,16.09
2022-10-15T20:59:13.599Z,15.94
2022-10-15T21:01:42.488Z,16.19
2022-10-15T21:04:10.892Z,15.89
2022-10-15T21:06:41.194Z,15.81
2022-10-15T21:09:09.588Z,15.89
2022-10-15T21:11:41.537Z,15.84
2022-10-15T21:14:09.870Z,15.68
2022-10-15T21:16:38.157Z,15.96
2022-10-15T21:19:06.713Z,16.03
2022-10-15T21:21:35.034Z,15.88
2022-10-15T21:24:05.309Z,16.17
2022-10-15T21:26:34.263Z,16.05
2022-10-15T21:29:02.685Z,16.41
2022-10-15T21:31:31.148Z,16.58
2022-10-15T21:33:59.517Z,16.47
2022-10-15T21:36:29.502Z,16.28
2022-10-15T21:39:00.921Z,16.28
2022-10-15T21:41:33.316Z,16.32
2022-10-15T21:44:02.633Z,16.80
2022-10-15T21:46:31.579Z,16.61
2022-10-15T21:49:00.784Z,16.62
2022-10-15T21:51:31.251Z,16.69
2022-10-15T21:54:01.359Z,17.04
2022-10-15T21:56:31.624Z,17.38
2022-10-15T21:59:00.912Z,16.95
2022-10-15T22:01:31.658Z,17.19
2022-10-15T22:04:01.769Z,16.38
2022-10-15T22:06:30.167Z,16.79
2022-10-15T22:08:59.415Z,16.95
2022-10-15T22:11:31.285Z,16.97
2022-10-15T22:14:01.738Z,16.91
2022-10-15T22:16:29.946Z,16.52
2022-10-15T22:18:58.731Z,16.38
2022-10-15T22:21:29.453Z,16.57
2022-10-15T22:23:59.575Z,17.15
2022-10-15T22:26:32.734Z,17.15
2022-10-15T22:29:02.846Z,16.66
2022-10-15T22:31:31.847Z,17.13
2022-10-15T22:34:00.792Z,17.02
2022-10-15T22:36:31.376Z,17.05
2022-10-15T22:39:01.880Z,17.40
2022-10-15T22:41:34.216Z,17.44
2022-10-15T22:44:03.379Z,17.44
2022-10-15T22:46:34.402Z,17.41
2022-10-15T22:49:02.888Z,17.39
2022-10-15T22:51:31.463Z,17.46
2022-10-15T22:54:00.762Z,16.99
2022-10-15T22:56:31.588Z,17.47
2022-10-15T22:59:00.693Z,17.62
2022-10-15T23:01:31.011Z,17.21
2022-10-15T23:04:01.684Z,17.09
2022-10-15T23:06:30.488Z,17.36
2022-10-15T23:08:59.779Z,17.53
2022-10-15T23:11:30.422Z,17.24
2022-10-15T23:14:02.191Z,17.64
2022-10-15T23:16:32.631Z,17.08
2022-10-15T23:19:02.567Z,17.40
2022-10-15T23:21:33.692Z,17.18
2022-10-15T23:24:02.650Z,17.15
2022-10-15T23:26:31.204Z,16.62
2022-10-15T23:29:03.426Z,17.20
2022-10-15T23:31:34.393Z,17.72
2022-10-15T23:34:06.019Z,17.34
2022-10-15T23:36:35.245Z,17.43
2022-10-15T23:39:06.137Z,17.60
2022-10-15T23:41:34.720Z,17.70
2022-10-15T23:44:04.995Z,17.31
2022-10-15T23:46:33.159Z,17.22
2022-10-15T23:49:01.457Z,17.49
2022-10-15T23:51:31.410Z,17.41
2022-10-15T23:54:01.905Z,17.52
2022-10-15T23:56:31.301Z,17.50
2022-10-15T23:59:01.376Z,17.40
